createdAt,value
2023-03-23T00:03:59.127Z,1815
2023-03-23T00:09:17.489Z,1859
2023-03-23T00:14:36.181Z,1900
2023-03-23T00:19:54.691Z,1925
2023-03-23T00:25:13.351Z,1969
2023-03-23T00:30:31.567Z,1970
2023-03-23T00:35:50.059Z,1980
2023-03-23T00:41:08.556Z,2006
2023-03-23T00:46:26.762Z,2021
2023-03-23T00:51:45.306Z,2037
2023-03-23T00:57:03.444Z,2048
2023-03-23T01:02:23.020Z,2048
2023-03-23T01:07:41.344Z,2036
2023-03-23T01:12:59.875Z,2049
2023-03-23T01:18:17.869Z,2054
2023-03-23T01:23:52.231Z,2071
2023-03-23T01:29:10.643Z,2075
2023-03-23T01:34:29.189Z,2089
2023-03-23T01:39:47.309Z,2061
2023-03-23T01:45:05.812Z,2067
2023-03-23T01:50:24.542Z,2059
2023-03-23T01:55:43.344Z,2033
2023-03-23T02:01:01.975Z,2022
2023-03-23T02:06:20.292Z,2018
2023-03-23T02:11:38.608Z,2008
2023-03-23T02:16:56.571Z,1997
2023-03-23T02:22:14.880Z,1990
2023-03-23T02:27:33.481Z,1968
2023-03-23T02:32:52.070Z,1962
2023-03-23T02:38:10.558Z,1960
2023-03-23T02:43:29.070Z,1969
2023-03-23T02:48:53.599Z,1965
2023-03-23T02:54:12.563Z,1958
2023-03-23T02:59:31.064Z,1955
2023-03-23T03:04:49.453Z,1957
2023-03-23T03:10:08.495Z,1955
2023-03-23T03:15:35.490Z,1958
2023-03-23T03:20:53.811Z,1967
2023-03-23T03:26:13.351Z,1964
2023-03-23T03:31:31.482Z,1957
2023-03-23T03:36:50.151Z,1957
2023-03-23T03:42:08.472Z,1955
2023-03-23T03:47:26.958Z,1943
2023-03-23T03:52:45.166Z,1942
2023-03-23T03:58:03.819Z,1946
2023-03-23T04:03:22.144Z,1938
2023-03-23T04:08:41.959Z,1928
2023-03-23T04:14:01.553Z,1919
2023-03-23T04:19:19.776Z,1932
2023-03-23T04:24:55.968Z,1929
2023-03-23T04:30:15.688Z,1922
2023-03-23T04:35:34.566Z,1930
2023-03-23T04:40:52.800Z,1912
2023-03-23T04:46:10.746Z,1881
2023-03-23T04:51:28.878Z,1849
2023-03-23T04:56:46.859Z,1832
2023-03-23T05:02:13.761Z,1804
2023-03-23T05:07:32.770Z,1789
2023-03-23T05:12:50.982Z,1776
2023-03-23T05:18:09.091Z,1765
2023-03-23T05:23:27.411Z,1759
2023-03-23T05:28:45.565Z,1745
2023-03-23T05:34:03.860Z,1722
2023-03-23T05:39:22.006Z,1716
2023-03-23T05:44:40.335Z,1703
2023-03-23T05:49:58.648Z,1159
2023-03-23T05:55:16.780Z,991
2023-03-23T06:00:35.124Z,1076
2023-03-23T06:05:53.457Z,1149
2023-03-23T06:11:14.166Z,1179
2023-03-23T06:16:32.713Z,1188
2023-03-23T06:21:50.867Z,1196
2023-03-23T06:27:09.173Z,1200
2023-03-23T06:32:27.336Z,1211
2023-03-23T06:37:45.659Z,1225
2023-03-23T06:43:03.999Z,1231
2023-03-23T06:48:22.561Z,1233
2023-03-23T06:53:40.686Z,1229
2023-03-23T06:58:58.808Z,1228
2023-03-23T07:04:16.971Z,1232
2023-03-23T07:09:42.999Z,1231
2023-03-23T07:15:01.404Z,1228
2023-03-23T07:20:19.738Z,1226
2023-03-23T07:25:38.083Z,1220
2023-03-23T07:30:56.613Z,1216
2023-03-23T07:36:15.004Z,1211
2023-03-23T07:41:36.854Z,1209
2023-03-23T07:46:55.973Z,1207
2023-03-23T07:52:14.775Z,1205
2023-03-23T07:57:34.119Z,1198
2023-03-23T08:02:53.344Z,1194
2023-03-23T08:08:11.664Z,1188
2023-03-23T08:13:29.986Z,1188
2023-03-23T08:18:48.319Z,1181
2023-03-23T08:24:06.905Z,1174
2023-03-23T08:29:25.855Z,1144
2023-03-23T08:34:43.995Z,1100
2023-03-23T08:40:02.372Z,1089
2023-03-23T08:45:20.556Z,1092
2023-03-23T08:50:38.702Z,1096
2023-03-23T08:55:58.860Z,1094
2023-03-23T09:01:17.191Z,1095
2023-03-23T09:06:35.516Z,1093
2023-03-23T09:11:53.841Z,1090
2023-03-23T09:17:12.182Z,1086
2023-03-23T09:22:30.328Z,1091
2023-03-23T09:27:48.730Z,1091
2023-03-23T09:33:08.181Z,1099
2023-03-23T09:38:29.557Z,1093
2023-03-23T09:43:47.921Z,1102
2023-03-23T09:49:08.548Z,1106
2023-03-23T09:54:26.678Z,1104
2023-03-23T09:59:44.862Z,1104
2023-03-23T10:05:03.371Z,1106
2023-03-23T10:10:21.338Z,1098
2023-03-23T10:15:40.207Z,1086
2023-03-23T10:20:59.372Z,1078
2023-03-23T10:31:48.790Z,1088
2023-03-23T10:37:10.135Z,1086
2023-03-23T10:42:29.856Z,1090
2023-03-23T10:47:48.585Z,1085
2023-03-23T10:53:06.969Z,1077
2023-03-23T10:58:25.529Z,1069
2023-03-23T11:03:47.283Z,1064
2023-03-23T11:09:05.545Z,1061
2023-03-23T11:14:23.844Z,1055
2023-03-23T11:19:41.932Z,1051
2023-03-23T11:25:00.354Z,1046
2023-03-23T11:30:18.492Z,1036
2023-03-23T11:35:36.859Z,1029
2023-03-23T11:40:55.410Z,1024
2023-03-23T11:46:13.699Z,1018
2023-03-23T11:51:31.862Z,1011
2023-03-23T11:56:50.157Z,1012
2023-03-23T12:02:15.166Z,1008
2023-03-23T12:07:35.490Z,1006
2023-03-23T12:12:53.406Z,1004
2023-03-23T12:18:11.765Z,1000
2023-03-23T12:23:30.251Z,991
2023-03-23T12:28:48.220Z,985
2023-03-23T12:34:06.756Z,984
2023-03-23T12:39:24.970Z,975
2023-03-23T12:44:43.320Z,979
2023-03-23T12:50:01.313Z,973
2023-03-23T12:55:19.498Z,966
2023-03-23T13:00:37.814Z,966
2023-03-23T13:05:56.360Z,966
2023-03-23T13:11:14.711Z,958
2023-03-23T13:16:32.922Z,952
2023-03-23T13:21:53.230Z,948
2023-03-23T13:27:11.691Z,942
2023-03-23T13:32:30.002Z,936
2023-03-23T13:37:48.382Z,933
2023-03-23T13:43:06.924Z,935
2023-03-23T13:48:25.384Z,929
2023-03-23T13:53:43.610Z,923
2023-03-23T13:59:01.772Z,922
2023-03-23T14:04:19.681Z,912
2023-03-23T14:09:38.091Z,902
2023-03-23T14:14:56.460Z,899
2023-03-23T14:20:14.723Z,900
2023-03-23T14:25:33.105Z,898
2023-03-23T14:30:51.849Z,894
2023-03-23T14:36:10.034Z,893
2023-03-23T14:41:28.363Z,877
2023-03-23T14:46:46.601Z,870
2023-03-23T14:52:05.174Z,867
2023-03-23T14:57:23.128Z,865
2023-03-23T15:02:41.242Z,863
2023-03-23T15:07:59.870Z,848
2023-03-23T15:13:18.320Z,852
2023-03-23T15:18:36.662Z,852
2023-03-23T15:23:55.007Z,848
2023-03-23T15:29:13.358Z,867
2023-03-23T15:34:34.643Z,618
2023-03-23T15:39:53.951Z,477
2023-03-23T15:45:12.279Z,417
2023-03-23T15:50:30.620Z,403
2023-03-23T15:55:48.935Z,393
2023-03-23T16:01:07.247Z,396
2023-03-23T16:06:26.178Z,387
2023-03-23T16:11:44.516Z,388
2023-03-23T16:17:02.537Z,393
2023-03-23T16:22:20.806Z,432
2023-03-23T16:27:39.103Z,480
2023-03-23T16:33:00.892Z,500
2023-03-23T16:38:19.697Z,506
2023-03-23T16:43:38.195Z,512
2023-03-23T16:48:56.726Z,519
2023-03-23T16:54:14.924Z,528
2023-03-23T16:59:33.278Z,539
2023-03-23T17:04:51.635Z,553
2023-03-23T17:10:10.279Z,567
2023-03-23T17:15:13.005Z,576
2023-03-23T17:20:31.458Z,593
2023-03-23T17:25:49.864Z,611
2023-03-23T17:31:08.017Z,634
2023-03-23T17:36:26.585Z,651
2023-03-23T17:41:44.898Z,671
2023-03-23T17:47:03.122Z,682
2023-03-23T17:52:21.957Z,692
2023-03-23T17:57:40.265Z,703
2023-03-23T18:03:02.694Z,718
2023-03-23T18:08:20.915Z,731
2023-03-23T18:13:39.041Z,750
2023-03-23T18:18:57.287Z,764
2023-03-23T18:24:15.637Z,774
2023-03-23T18:29:34.151Z,783
2023-03-23T18:34:52.546Z,798
2023-03-23T18:40:10.925Z,807
2023-03-23T18:45:29.561Z,817
2023-03-23T18:50:47.718Z,826
2023-03-23T18:56:08.963Z,842
2023-03-23T19:01:27.112Z,806
2023-03-23T19:06:45.246Z,729
2023-03-23T19:12:03.618Z,770
2023-03-23T19:17:22.246Z,818
2023-03-23T19:22:40.633Z,680
2023-03-23T19:28:42.462Z,659
2023-03-23T19:34:44.363Z,718
2023-03-23T19:40:24.636Z,759
2023-03-23T19:46:07.904Z,792
2023-03-23T19:51:11.104Z,816
2023-03-23T19:56:29.957Z,825
2023-03-23T20:01:33.076Z,828
2023-03-23T20:06:35.719Z,837
2023-03-23T20:11:39.654Z,843
2023-03-23T20:17:00.859Z,853
2023-03-23T20:22:19.281Z,857
2023-03-23T20:27:37.915Z,877
2023-03-23T20:32:56.499Z,891
2023-03-23T20:38:15.047Z,906
2023-03-23T20:43:33.189Z,922
2023-03-23T20:48:51.339Z,948
2023-03-23T20:54:09.860Z,988
2023-03-23T20:59:28.217Z,702
2023-03-23T21:04:46.420Z,835
2023-03-23T21:10:04.532Z,1025
2023-03-23T21:15:23.101Z,1009
2023-03-23T21:20:47.125Z,1024
2023-03-23T21:26:05.813Z,1075
2023-03-23T21:31:08.177Z,1129
2023-03-23T21:36:26.487Z,1189
2023-03-23T21:41:44.864Z,1198
2023-03-23T21:47:03.026Z,1213
2023-03-23T21:52:21.487Z,1218
2023-03-23T21:57:39.608Z,1232
2023-03-23T22:02:58.152Z,1248
2023-03-23T22:08:16.397Z,1251
2023-03-23T22:13:34.590Z,1235
2023-03-23T22:18:52.928Z,1236
2023-03-23T22:24:11.098Z,1245
2023-03-23T22:29:29.742Z,1252
2023-03-23T22:34:48.396Z,1256
2023-03-23T22:40:06.529Z,1267
2023-03-23T22:45:24.685Z,1269
2023-03-23T22:50:43.428Z,1279
2023-03-23T22:56:02.243Z,1287
2023-03-23T23:01:20.995Z,1295
2023-03-23T23:06:39.239Z,1297
2023-03-23T23:11:57.683Z,1308
2023-03-23T23:17:15.805Z,1316
2023-03-23T23:22:33.986Z,1329
2023-03-23T23:27:52.289Z,1336
2023-03-23T23:33:10.432Z,1344
2023-03-23T23:38:28.950Z,1351
2023-03-23T23:43:47.487Z,1350
2023-03-23T23:49:06.532Z,1351
2023-03-23T23:54:24.901Z,1365
2023-03-23T23:59:43.074Z,1364
